Terminal Aerodrome Forecast
Issued by NWS Sterling, VA

Current Version | Previous Version | Graphics & Text | Print | Product List | Glossary On
Versions: 1 2 3 4 5 6 7 8 9 10 11 12 13 14 15 16 17 18 19 20 21 22 23 24 25 26 27 28 29 30 31 32
000
FTUS41 KLWX 221100
TAFIAD
TAF
KIAD 221140Z 2212/2318 36003KT P6SM BKN040
     FM221500 05004KT 5SM -FZRAPL OVC040
     FM221700 04004KT 5SM -FZRA OVC025
     FM221900 04004KT 3SM -RA SCT015 OVC025
     FM222300 01005KT P6SM SCT008 OVC015
     FM230300 35006KT P6SM OVC008
     FM231300 28004KT 3SM BR OVC008=

USA.gov is the U.S. government's official web portal to all federal, state and local government web resources and services.